sensor_id;sensor_type;location;lat;lon;timestamp;P1;durP1;ratioP1;P2;durP2;ratioP2
20004;SDS011;69160;45.498;-73.582;2023-08-06T00:00:27;2.60;;;2.40;;
20004;SDS011;69160;45.498;-73.582;2023-08-06T00:02:53;2.53;;;2.10;;
20004;SDS011;69160;45.498;-73.582;2023-08-06T00:05:19;2.80;;;2.50;;
20004;SDS011;69160;45.498;-73.582;2023-08-06T00:07:48;2.30;;;2.10;;
20004;SDS011;69160;45.498;-73.582;2023-08-06T00:10:15;2.77;;;2.50;;
20004;SDS011;69160;45.498;-73.582;2023-08-06T00:12:42;3.30;;;2.60;;
20004;SDS011;69160;45.498;-73.582;2023-08-06T00:15:11;4.13;;;2.80;;
20004;SDS011;69160;45.498;-73.582;2023-08-06T00:17:38;3.00;;;2.40;;
20004;SDS011;69160;45.498;-73.582;2023-08-06T00:20:04;2.47;;;2.27;;
20004;SDS011;69160;45.498;-73.582;2023-08-06T00:22:35;2.23;;;2.00;;
20004;SDS011;69160;45.498;-73.582;2023-08-06T00:25:02;2.67;;;2.33;;
20004;SDS011;69160;45.498;-73.582;2023-08-06T00:27:29;2.20;;;2.00;;
20004;SDS011;69160;45.498;-73.582;2023-08-06T00:29:55;4.13;;;2.17;;
20004;SDS011;69160;45.498;-73.582;2023-08-06T00:32:21;2.47;;;2.27;;
20004;SDS011;69160;45.498;-73.582;2023-08-06T00:34:48;3.10;;;2.70;;
20004;SDS011;69160;45.498;-73.582;2023-08-06T00:37:15;2.23;;;2.03;;
20004;SDS011;69160;45.498;-73.582;2023-08-06T00:39:42;3.17;;;2.27;;
20004;SDS011;69160;45.498;-73.582;2023-08-06T00:42:09;3.00;;;2.30;;
20004;SDS011;69160;45.498;-73.582;2023-08-06T00:44:36;2.53;;;2.00;;
20004;SDS011;69160;45.498;-73.582;2023-08-06T00:47:02;2.70;;;2.30;;
20004;SDS011;69160;45.498;-73.582;2023-08-06T00:49:29;2.63;;;2.40;;
20004;SDS011;69160;45.498;-73.582;2023-08-06T00:51:55;2.90;;;2.60;;
20004;SDS011;69160;45.498;-73.582;2023-08-06T00:54:23;3.03;;;2.43;;
20004;SDS011;69160;45.498;-73.582;2023-08-06T00:56:50;3.20;;;2.30;;
20004;SDS011;69160;45.498;-73.582;2023-08-06T00:59:16;2.80;;;2.30;;
20004;SDS011;69160;45.498;-73.582;2023-08-06T01:01:43;4.00;;;2.57;;
20004;SDS011;69160;45.498;-73.582;2023-08-06T01:04:10;2.40;;;2.20;;
20004;SDS011;69160;45.498;-73.582;2023-08-06T01:06:47;2.20;;;2.00;;
20004;SDS011;69160;45.498;-73.582;2023-08-06T01:11:51;2.90;;;2.60;;
20004;SDS011;69160;45.498;-73.582;2023-08-06T01:14:42;2.27;;;2.03;;
20004;SDS011;69160;45.498;-73.582;2023-08-06T01:17:23;3.37;;;2.17;;
20004;SDS011;69160;45.498;-73.582;2023-08-06T01:19:52;2.80;;;2.20;;
20004;SDS011;69160;45.498;-73.582;2023-08-06T01:22:18;2.30;;;2.10;;
20004;SDS011;69160;45.498;-73.582;2023-08-06T01:24:46;2.53;;;2.30;;
20004;SDS011;69160;45.498;-73.582;2023-08-06T01:27:17;2.30;;;2.10;;
20004;SDS011;69160;45.498;-73.582;2023-08-06T01:30:06;3.57;;;2.70;;
20004;SDS011;69160;45.498;-73.582;2023-08-06T01:32:34;2.87;;;2.50;;
20004;SDS011;69160;45.498;-73.582;2023-08-06T01:35:05;3.50;;;2.53;;
20004;SDS011;69160;45.498;-73.582;2023-08-06T01:37:32;3.30;;;2.70;;
20004;SDS011;69160;45.498;-73.582;2023-08-06T01:39:58;2.40;;;2.20;;
20004;SDS011;69160;45.498;-73.582;2023-08-06T01:42:25;2.50;;;2.20;;
20004;SDS011;69160;45.498;-73.582;2023-08-06T01:44:51;2.40;;;2.20;;
20004;SDS011;69160;45.498;-73.582;2023-08-06T01:47:17;2.90;;;2.37;;
20004;SDS011;69160;45.498;-73.582;2023-08-06T01:49:43;2.60;;;2.40;;
20004;SDS011;69160;45.498;-73.582;2023-08-06T01:52:09;3.40;;;2.10;;
20004;SDS011;69160;45.498;-73.582;2023-08-06T01:54:35;3.37;;;2.30;;
20004;SDS011;69160;45.498;-73.582;2023-08-06T01:57:01;2.43;;;2.07;;
20004;SDS011;69160;45.498;-73.582;2023-08-06T01:59:28;4.67;;;2.77;;
20004;SDS011;69160;45.498;-73.582;2023-08-06T02:01:54;2.53;;;2.33;;
20004;SDS011;69160;45.498;-73.582;2023-08-06T02:04:20;2.70;;;2.30;;
20004;SDS011;69160;45.498;-73.582;2023-08-06T02:06:46;2.53;;;2.33;;
20004;SDS011;69160;45.498;-73.582;2023-08-06T02:09:12;3.60;;;2.27;;
20004;SDS011;69160;45.498;-73.582;2023-08-06T02:11:38;2.63;;;2.23;;
20004;SDS011;69160;45.498;-73.582;2023-08-06T02:14:04;3.00;;;2.43;;
20004;SDS011;69160;45.498;-73.582;2023-08-06T02:16:31;2.30;;;2.10;;
20004;SDS011;69160;45.498;-73.582;2023-08-06T02:18:57;2.50;;;2.00;;
20004;SDS011;69160;45.498;-73.582;2023-08-06T02:21:23;3.03;;;2.33;;
20004;SDS011;69160;45.498;-73.582;2023-08-06T02:23:49;2.93;;;2.40;;
20004;SDS011;69160;45.498;-73.582;2023-08-06T02:26:15;2.57;;;2.30;;
20004;SDS011;69160;45.498;-73.582;2023-08-06T02:28:41;3.20;;;2.90;;
20004;SDS011;69160;45.498;-73.582;2023-08-06T02:31:07;2.40;;;2.20;;
20004;SDS011;69160;45.498;-73.582;2023-08-06T02:33:33;2.57;;;2.37;;
20004;SDS011;69160;45.498;-73.582;2023-08-06T02:36:00;3.43;;;2.43;;
20004;SDS011;69160;45.498;-73.582;2023-08-06T02:38:28;2.80;;;2.30;;
20004;SDS011;69160;45.498;-73.582;2023-08-06T02:40:55;2.50;;;2.30;;
20004;SDS011;69160;45.498;-73.582;2023-08-06T02:43:21;2.57;;;2.30;;
20004;SDS011;69160;45.498;-73.582;2023-08-06T02:45:47;3.03;;;2.70;;
20004;SDS011;69160;45.498;-73.582;2023-08-06T02:48:13;3.20;;;2.77;;
20004;SDS011;69160;45.498;-73.582;2023-08-06T02:50:40;3.30;;;2.80;;
20004;SDS011;69160;45.498;-73.582;2023-08-06T02:53:06;2.50;;;2.30;;
20004;SDS011;69160;45.498;-73.582;2023-08-06T02:55:33;2.40;;;2.20;;
20004;SDS011;69160;45.498;-73.582;2023-08-06T02:58:03;2.63;;;2.37;;
20004;SDS011;69160;45.498;-73.582;2023-08-06T03:00:29;2.40;;;2.13;;
20004;SDS011;69160;45.498;-73.582;2023-08-06T03:02:55;2.50;;;2.30;;
20004;SDS011;69160;45.498;-73.582;2023-08-06T03:05:21;2.43;;;2.23;;
20004;SDS011;69160;45.498;-73.582;2023-08-06T03:07:47;2.57;;;2.37;;
20004;SDS011;69160;45.498;-73.582;2023-08-06T03:10:13;3.33;;;2.80;;
20004;SDS011;69160;45.498;-73.582;2023-08-06T03:12:39;3.63;;;2.50;;
20004;SDS011;69160;45.498;-73.582;2023-08-06T03:15:06;2.67;;;2.20;;
20004;SDS011;69160;45.498;-73.582;2023-08-06T03:17:32;3.77;;;2.70;;
20004;SDS011;69160;45.498;-73.582;2023-08-06T03:19:58;3.13;;;2.63;;
20004;SDS011;69160;45.498;-73.582;2023-08-06T03:22:24;2.47;;;2.20;;
20004;SDS011;69160;45.498;-73.582;2023-08-06T03:24:50;2.63;;;2.37;;
20004;SDS011;69160;45.498;-73.582;2023-08-06T03:27:17;2.20;;;2.00;;
20004;SDS011;69160;45.498;-73.582;2023-08-06T03:29:43;2.40;;;2.20;;
20004;SDS011;69160;45.498;-73.582;2023-08-06T03:32:09;3.10;;;2.53;;
20004;SDS011;69160;45.498;-73.582;2023-08-06T03:34:35;2.30;;;2.10;;
20004;SDS011;69160;45.498;-73.582;2023-08-06T03:37:01;3.00;;;2.33;;
20004;SDS011;69160;45.498;-73.582;2023-08-06T03:39:27;2.90;;;2.40;;
20004;SDS011;69160;45.498;-73.582;2023-08-06T03:41:54;3.13;;;2.83;;
20004;SDS011;69160;45.498;-73.582;2023-08-06T03:44:20;2.87;;;2.23;;
20004;SDS011;69160;45.498;-73.582;2023-08-06T03:46:46;3.33;;;2.90;;
20004;SDS011;69160;45.498;-73.582;2023-08-06T03:49:12;2.80;;;2.40;;
20004;SDS011;69160;45.498;-73.582;2023-08-06T03:51:38;3.10;;;2.57;;
20004;SDS011;69160;45.498;-73.582;2023-08-06T03:54:04;2.43;;;2.23;;
20004;SDS011;69160;45.498;-73.582;2023-08-06T03:56:30;2.60;;;2.33;;
20004;SDS011;69160;45.498;-73.582;2023-08-06T03:58:56;3.50;;;2.60;;
20004;SDS011;69160;45.498;-73.582;2023-08-06T04:01:22;2.63;;;2.40;;
20004;SDS011;69160;45.498;-73.582;2023-08-06T04:03:48;2.67;;;2.47;;
20004;SDS011;69160;45.498;-73.582;2023-08-06T04:06:15;3.00;;;2.57;;
20004;SDS011;69160;45.498;-73.582;2023-08-06T04:08:41;2.87;;;2.57;;
20004;SDS011;69160;45.498;-73.582;2023-08-06T04:11:07;3.47;;;2.47;;
20004;SDS011;69160;45.498;-73.582;2023-08-06T04:13:33;2.93;;;2.33;;
20004;SDS011;69160;45.498;-73.582;2023-08-06T04:16:02;2.80;;;2.20;;
20004;SDS011;69160;45.498;-73.582;2023-08-06T04:18:29;3.03;;;2.40;;
20004;SDS011;69160;45.498;-73.582;2023-08-06T04:20:55;2.53;;;2.23;;
20004;SDS011;69160;45.498;-73.582;2023-08-06T04:23:22;2.43;;;2.23;;
20004;SDS011;69160;45.498;-73.582;2023-08-06T04:25:49;2.50;;;2.30;;
20004;SDS011;69160;45.498;-73.582;2023-08-06T04:28:15;4.40;;;2.87;;
20004;SDS011;69160;45.498;-73.582;2023-08-06T04:30:41;3.40;;;2.30;;
20004;SDS011;69160;45.498;-73.582;2023-08-06T04:33:07;3.27;;;2.97;;
20004;SDS011;69160;45.498;-73.582;2023-08-06T04:35:34;3.43;;;2.97;;
20004;SDS011;69160;45.498;-73.582;2023-08-06T04:38:00;2.63;;;2.33;;
20004;SDS011;69160;45.498;-73.582;2023-08-06T04:40:26;3.00;;;2.53;;
20004;SDS011;69160;45.498;-73.582;2023-08-06T04:42:52;4.67;;;2.70;;
20004;SDS011;69160;45.498;-73.582;2023-08-06T04:45:18;3.20;;;2.50;;
20004;SDS011;69160;45.498;-73.582;2023-08-06T04:47:45;3.80;;;2.63;;
20004;SDS011;69160;45.498;-73.582;2023-08-06T04:50:11;3.40;;;2.80;;
20004;SDS011;69160;45.498;-73.582;2023-08-06T04:52:37;3.40;;;2.70;;
20004;SDS011;69160;45.498;-73.582;2023-08-06T04:55:03;3.13;;;2.83;;
20004;SDS011;69160;45.498;-73.582;2023-08-06T04:57:31;2.50;;;2.30;;
20004;SDS011;69160;45.498;-73.582;2023-08-06T04:59:57;3.40;;;2.77;;
20004;SDS011;69160;45.498;-73.582;2023-08-06T05:02:23;3.20;;;2.53;;
20004;SDS011;69160;45.498;-73.582;2023-08-06T05:04:49;2.70;;;2.50;;
20004;SDS011;69160;45.498;-73.582;2023-08-06T05:07:15;2.80;;;2.50;;
20004;SDS011;69160;45.498;-73.582;2023-08-06T05:09:41;2.27;;;2.07;;
20004;SDS011;69160;45.498;-73.582;2023-08-06T05:12:08;4.20;;;2.70;;
20004;SDS011;69160;45.498;-73.582;2023-08-06T05:14:34;4.30;;;2.33;;
20004;SDS011;69160;45.498;-73.582;2023-08-06T05:17:00;2.90;;;2.60;;
20004;SDS011;69160;45.498;-73.582;2023-08-06T05:19:28;3.30;;;2.80;;
20004;SDS011;69160;45.498;-73.582;2023-08-06T05:21:54;3.90;;;2.70;;
20004;SDS011;69160;45.498;-73.582;2023-08-06T05:24:20;3.10;;;2.50;;
20004;SDS011;69160;45.498;-73.582;2023-08-06T05:26:46;2.93;;;2.50;;
20004;SDS011;69160;45.498;-73.582;2023-08-06T05:29:13;2.33;;;2.10;;
20004;SDS011;69160;45.498;-73.582;2023-08-06T05:31:39;3.30;;;3.00;;
20004;SDS011;69160;45.498;-73.582;2023-08-06T05:34:05;3.17;;;2.80;;
20004;SDS011;69160;45.498;-73.582;2023-08-06T05:36:32;3.30;;;2.70;;
20004;SDS011;69160;45.498;-73.582;2023-08-06T05:38:59;2.10;;;1.90;;
20004;SDS011;69160;45.498;-73.582;2023-08-06T05:41:25;2.33;;;2.13;;
20004;SDS011;69160;45.498;-73.582;2023-08-06T05:43:51;2.87;;;2.53;;
20004;SDS011;69160;45.498;-73.582;2023-08-06T05:46:17;4.00;;;2.43;;
20004;SDS011;69160;45.498;-73.582;2023-08-06T05:48:43;2.70;;;2.50;;
20004;SDS011;69160;45.498;-73.582;2023-08-06T05:51:09;2.90;;;2.60;;
20004;SDS011;69160;45.498;-73.582;2023-08-06T05:53:37;2.90;;;2.37;;
20004;SDS011;69160;45.498;-73.582;2023-08-06T05:56:04;3.50;;;2.77;;
20004;SDS011;69160;45.498;-73.582;2023-08-06T05:58:30;3.10;;;2.67;;
20004;SDS011;69160;45.498;-73.582;2023-08-06T06:00:56;3.33;;;2.80;;
20004;SDS011;69160;45.498;-73.582;2023-08-06T06:03:22;2.97;;;2.57;;
20004;SDS011;69160;45.498;-73.582;2023-08-06T06:05:48;3.07;;;2.70;;
20004;SDS011;69160;45.498;-73.582;2023-08-06T06:08:14;2.93;;;2.60;;
20004;SDS011;69160;45.498;-73.582;2023-08-06T06:10:41;2.40;;;2.20;;
20004;SDS011;69160;45.498;-73.582;2023-08-06T06:13:07;2.30;;;2.10;;
20004;SDS011;69160;45.498;-73.582;2023-08-06T06:15:33;2.73;;;2.40;;
20004;SDS011;69160;45.498;-73.582;2023-08-06T06:17:59;2.77;;;2.33;;
20004;SDS011;69160;45.498;-73.582;2023-08-06T06:20:25;3.10;;;2.60;;
20004;SDS011;69160;45.498;-73.582;2023-08-06T06:22:51;3.40;;;2.90;;
20004;SDS011;69160;45.498;-73.582;2023-08-06T06:25:17;3.53;;;3.00;;
20004;SDS011;69160;45.498;-73.582;2023-08-06T06:27:43;2.80;;;2.43;;
20004;SDS011;69160;45.498;-73.582;2023-08-06T06:30:10;2.70;;;2.47;;
20004;SDS011;69160;45.498;-73.582;2023-08-06T06:32:37;2.50;;;2.30;;
20004;SDS011;69160;45.498;-73.582;2023-08-06T06:35:05;2.53;;;2.33;;
20004;SDS011;69160;45.498;-73.582;2023-08-06T06:37:31;3.73;;;3.00;;
20004;SDS011;69160;45.498;-73.582;2023-08-06T06:39:58;2.53;;;2.30;;
20004;SDS011;69160;45.498;-73.582;2023-08-06T06:42:24;2.77;;;2.50;;
20004;SDS011;69160;45.498;-73.582;2023-08-06T06:44:50;3.20;;;2.90;;
20004;SDS011;69160;45.498;-73.582;2023-08-06T06:47:16;2.70;;;2.30;;
20004;SDS011;69160;45.498;-73.582;2023-08-06T06:49:42;3.00;;;2.70;;
20004;SDS011;69160;45.498;-73.582;2023-08-06T06:52:08;3.10;;;2.80;;
20004;SDS011;69160;45.498;-73.582;2023-08-06T06:54:34;3.10;;;2.53;;
20004;SDS011;69160;45.498;-73.582;2023-08-06T06:57:00;2.40;;;2.20;;
20004;SDS011;69160;45.498;-73.582;2023-08-06T06:59:27;2.60;;;2.40;;
20004;SDS011;69160;45.498;-73.582;2023-08-06T07:01:53;3.00;;;2.60;;
20004;SDS011;69160;45.498;-73.582;2023-08-06T07:04:19;3.70;;;2.53;;
20004;SDS011;69160;45.498;-73.582;2023-08-06T07:06:45;3.00;;;2.53;;
20004;SDS011;69160;45.498;-73.582;2023-08-06T07:09:11;3.20;;;2.67;;
20004;SDS011;69160;45.498;-73.582;2023-08-06T07:11:37;3.60;;;2.80;;
20004;SDS011;69160;45.498;-73.582;2023-08-06T07:14:03;2.50;;;2.20;;
20004;SDS011;69160;45.498;-73.582;2023-08-06T07:16:29;2.73;;;2.43;;
20004;SDS011;69160;45.498;-73.582;2023-08-06T07:18:56;2.93;;;2.47;;
20004;SDS011;69160;45.498;-73.582;2023-08-06T07:21:22;2.60;;;2.40;;
20004;SDS011;69160;45.498;-73.582;2023-08-06T07:23:48;2.77;;;2.47;;
20004;SDS011;69160;45.498;-73.582;2023-08-06T07:26:15;4.73;;;2.70;;
20004;SDS011;69160;45.498;-73.582;2023-08-06T07:28:41;3.03;;;2.60;;
20004;SDS011;69160;45.498;-73.582;2023-08-06T07:31:07;2.30;;;2.10;;
20004;SDS011;69160;45.498;-73.582;2023-08-06T07:33:34;2.57;;;2.37;;
20004;SDS011;69160;45.498;-73.582;2023-08-06T07:36:06;5.80;;;3.07;;
20004;SDS011;69160;45.498;-73.582;2023-08-06T07:38:35;3.10;;;2.50;;
20004;SDS011;69160;45.498;-73.582;2023-08-06T07:41:01;3.50;;;2.37;;
20004;SDS011;69160;45.498;-73.582;2023-08-06T07:43:28;3.23;;;2.93;;
20004;SDS011;69160;45.498;-73.582;2023-08-06T07:45:54;3.20;;;2.70;;
20004;SDS011;69160;45.498;-73.582;2023-08-06T07:48:25;2.83;;;2.50;;
20004;SDS011;69160;45.498;-73.582;2023-08-06T07:50:52;3.40;;;2.60;;
20004;SDS011;69160;45.498;-73.582;2023-08-06T07:53:19;3.23;;;2.70;;
20004;SDS011;69160;45.498;-73.582;2023-08-06T07:55:52;2.73;;;2.30;;
20004;SDS011;69160;45.498;-73.582;2023-08-06T07:58:20;3.90;;;2.73;;
20004;SDS011;69160;45.498;-73.582;2023-08-06T08:00:46;3.70;;;2.73;;
20004;SDS011;69160;45.498;-73.582;2023-08-06T08:03:13;3.17;;;2.83;;
20004;SDS011;69160;45.498;-73.582;2023-08-06T08:05:41;3.97;;;2.77;;
20004;SDS011;69160;45.498;-73.582;2023-08-06T08:08:07;2.83;;;2.53;;
20004;SDS011;69160;45.498;-73.582;2023-08-06T08:10:34;2.70;;;2.30;;
20004;SDS011;69160;45.498;-73.582;2023-08-06T08:13:02;3.60;;;2.80;;
20004;SDS011;69160;45.498;-73.582;2023-08-06T08:15:29;3.27;;;2.97;;
20004;SDS011;69160;45.498;-73.582;2023-08-06T08:17:56;3.40;;;2.70;;
20004;SDS011;69160;45.498;-73.582;2023-08-06T08:20:22;3.57;;;2.80;;
20004;SDS011;69160;45.498;-73.582;2023-08-06T08:22:48;3.67;;;2.77;;
20004;SDS011;69160;45.498;-73.582;2023-08-06T08:25:15;3.53;;;2.67;;
20004;SDS011;69160;45.498;-73.582;2023-08-06T08:27:42;3.70;;;2.50;;
20004;SDS011;69160;45.498;-73.582;2023-08-06T08:30:08;3.87;;;2.90;;
20004;SDS011;69160;45.498;-73.582;2023-08-06T08:32:34;3.30;;;3.00;;
20004;SDS011;69160;45.498;-73.582;2023-08-06T08:35:00;3.10;;;2.70;;
20004;SDS011;69160;45.498;-73.582;2023-08-06T08:37:26;3.63;;;3.27;;
20004;SDS011;69160;45.498;-73.582;2023-08-06T08:39:52;3.70;;;3.00;;
20004;SDS011;69160;45.498;-73.582;2023-08-06T08:42:18;4.90;;;2.90;;
20004;SDS011;69160;45.498;-73.582;2023-08-06T08:44:45;3.80;;;2.90;;
20004;SDS011;69160;45.498;-73.582;2023-08-06T08:47:11;2.63;;;2.43;;
20004;SDS011;69160;45.498;-73.582;2023-08-06T08:49:39;3.03;;;2.70;;
20004;SDS011;69160;45.498;-73.582;2023-08-06T08:52:06;4.40;;;3.30;;
20004;SDS011;69160;45.498;-73.582;2023-08-06T08:54:36;3.60;;;2.90;;
20004;SDS011;69160;45.498;-73.582;2023-08-06T08:57:04;3.10;;;2.80;;
20004;SDS011;69160;45.498;-73.582;2023-08-06T08:59:32;3.40;;;3.00;;
20004;SDS011;69160;45.498;-73.582;2023-08-06T09:02:00;3.50;;;2.77;;
20004;SDS011;69160;45.498;-73.582;2023-08-06T09:04:28;4.70;;;3.53;;
20004;SDS011;69160;45.498;-73.582;2023-08-06T09:06:57;3.47;;;2.87;;
20004;SDS011;69160;45.498;-73.582;2023-08-06T09:09:31;3.47;;;3.13;;
20004;SDS011;69160;45.498;-73.582;2023-08-06T09:12:02;2.93;;;2.60;;
20004;SDS011;69160;45.498;-73.582;2023-08-06T09:14:37;2.90;;;2.23;;
20004;SDS011;69160;45.498;-73.582;2023-08-06T09:17:03;3.27;;;2.80;;
20004;SDS011;69160;45.498;-73.582;2023-08-06T09:19:31;4.00;;;2.93;;
20004;SDS011;69160;45.498;-73.582;2023-08-06T09:21:58;3.30;;;2.43;;
20004;SDS011;69160;45.498;-73.582;2023-08-06T09:24:24;3.10;;;2.80;;
20004;SDS011;69160;45.498;-73.582;2023-08-06T09:26:54;3.17;;;2.80;;
20004;SDS011;69160;45.498;-73.582;2023-08-06T09:29:20;3.37;;;3.07;;
20004;SDS011;69160;45.498;-73.582;2023-08-06T09:31:47;4.00;;;3.20;;
20004;SDS011;69160;45.498;-73.582;2023-08-06T09:34:17;2.80;;;2.50;;
20004;SDS011;69160;45.498;-73.582;2023-08-06T09:36:51;3.73;;;2.60;;
20004;SDS011;69160;45.498;-73.582;2023-08-06T09:39:24;4.83;;;3.37;;
20004;SDS011;69160;45.498;-73.582;2023-08-06T09:41:58;3.60;;;3.30;;
20004;SDS011;69160;45.498;-73.582;2023-08-06T09:44:27;4.20;;;3.60;;
20004;SDS011;69160;45.498;-73.582;2023-08-06T09:46:57;3.70;;;2.90;;
20004;SDS011;69160;45.498;-73.582;2023-08-06T09:49:25;3.47;;;3.00;;
20004;SDS011;69160;45.498;-73.582;2023-08-06T09:52:11;2.47;;;2.23;;
20004;SDS011;69160;45.498;-73.582;2023-08-06T09:54:39;3.17;;;2.87;;
20004;SDS011;69160;45.498;-73.582;2023-08-06T09:57:05;4.17;;;3.20;;
20004;SDS011;69160;45.498;-73.582;2023-08-06T09:59:32;4.33;;;3.53;;
20004;SDS011;69160;45.498;-73.582;2023-08-06T10:01:59;4.73;;;3.37;;
20004;SDS011;69160;45.498;-73.582;2023-08-06T10:04:26;4.10;;;3.20;;
20004;SDS011;69160;45.498;-73.582;2023-08-06T10:06:54;3.13;;;2.83;;
20004;SDS011;69160;45.498;-73.582;2023-08-06T10:09:20;2.73;;;2.53;;
20004;SDS011;69160;45.498;-73.582;2023-08-06T10:11:49;3.60;;;2.90;;
20004;SDS011;69160;45.498;-73.582;2023-08-06T10:14:28;3.50;;;3.00;;
20004;SDS011;69160;45.498;-73.582;2023-08-06T10:16:59;3.80;;;3.33;;
20004;SDS011;69160;45.498;-73.582;2023-08-06T10:19:25;3.50;;;3.00;;
20004;SDS011;69160;45.498;-73.582;2023-08-06T10:22:09;3.10;;;2.80;;
20004;SDS011;69160;45.498;-73.582;2023-08-06T10:24:45;4.60;;;3.43;;
20004;SDS011;69160;45.498;-73.582;2023-08-06T10:27:22;3.37;;;3.07;;
20004;SDS011;69160;45.498;-73.582;2023-08-06T10:32:51;3.87;;;3.20;;
20004;SDS011;69160;45.498;-73.582;2023-08-06T10:35:29;4.00;;;3.30;;
20004;SDS011;69160;45.498;-73.582;2023-08-06T10:38:19;3.93;;;3.20;;
20004;SDS011;69160;45.498;-73.582;2023-08-06T10:41:01;3.40;;;3.07;;
20004;SDS011;69160;45.498;-73.582;2023-08-06T10:43:29;4.23;;;3.40;;
20004;SDS011;69160;45.498;-73.582;2023-08-06T10:45:58;3.70;;;3.00;;
20004;SDS011;69160;45.498;-73.582;2023-08-06T10:48:41;5.07;;;3.00;;
20004;SDS011;69160;45.498;-73.582;2023-08-06T10:51:09;5.00;;;3.20;;
20004;SDS011;69160;45.498;-73.582;2023-08-06T10:53:37;4.23;;;3.27;;
20004;SDS011;69160;45.498;-73.582;2023-08-06T10:56:16;3.00;;;2.70;;
20004;SDS011;69160;45.498;-73.582;2023-08-06T10:58:46;3.70;;;3.30;;
20004;SDS011;69160;45.498;-73.582;2023-08-06T11:01:13;3.33;;;3.03;;
20004;SDS011;69160;45.498;-73.582;2023-08-06T11:03:40;4.10;;;3.30;;
20004;SDS011;69160;45.498;-73.582;2023-08-06T11:06:08;3.63;;;3.23;;
20004;SDS011;69160;45.498;-73.582;2023-08-06T11:08:35;4.20;;;3.53;;
20004;SDS011;69160;45.498;-73.582;2023-08-06T11:11:09;3.20;;;2.90;;
20004;SDS011;69160;45.498;-73.582;2023-08-06T11:13:38;4.33;;;3.10;;
20004;SDS011;69160;45.498;-73.582;2023-08-06T11:16:05;3.30;;;3.00;;
20004;SDS011;69160;45.498;-73.582;2023-08-06T11:18:34;4.03;;;3.20;;
20004;SDS011;69160;45.498;-73.582;2023-08-06T11:21:01;3.20;;;2.90;;
20004;SDS011;69160;45.498;-73.582;2023-08-06T11:23:28;3.43;;;2.90;;
20004;SDS011;69160;45.498;-73.582;2023-08-06T11:25:55;3.67;;;3.23;;
20004;SDS011;69160;45.498;-73.582;2023-08-06T11:28:21;3.43;;;3.13;;
20004;SDS011;69160;45.498;-73.582;2023-08-06T11:30:51;4.10;;;3.37;;
20004;SDS011;69160;45.498;-73.582;2023-08-06T11:33:21;4.20;;;3.33;;
20004;SDS011;69160;45.498;-73.582;2023-08-06T11:35:50;4.03;;;3.10;;
20004;SDS011;69160;45.498;-73.582;2023-08-06T11:38:17;2.90;;;2.60;;
20004;SDS011;69160;45.498;-73.582;2023-08-06T11:40:50;3.77;;;3.37;;
20004;SDS011;69160;45.498;-73.582;2023-08-06T11:43:17;4.00;;;3.30;;
20004;SDS011;69160;45.498;-73.582;2023-08-06T11:45:46;4.93;;;3.30;;
20004;SDS011;69160;45.498;-73.582;2023-08-06T11:48:12;4.47;;;3.20;;
20004;SDS011;69160;45.498;-73.582;2023-08-06T11:50:38;4.30;;;3.67;;
20004;SDS011;69160;45.498;-73.582;2023-08-06T11:53:04;4.30;;;3.60;;
20004;SDS011;69160;45.498;-73.582;2023-08-06T11:55:31;3.60;;;2.90;;
20004;SDS011;69160;45.498;-73.582;2023-08-06T11:57:58;3.67;;;3.03;;
20004;SDS011;69160;45.498;-73.582;2023-08-06T12:00:28;3.43;;;3.13;;
20004;SDS011;69160;45.498;-73.582;2023-08-06T12:02:55;3.23;;;2.93;;
20004;SDS011;69160;45.498;-73.582;2023-08-06T12:05:39;3.40;;;3.03;;
20004;SDS011;69160;45.498;-73.582;2023-08-06T12:08:06;3.57;;;3.23;;
20004;SDS011;69160;45.498;-73.582;2023-08-06T12:10:34;3.80;;;3.33;;
20004;SDS011;69160;45.498;-73.582;2023-08-06T12:13:00;3.57;;;3.10;;
20004;SDS011;69160;45.498;-73.582;2023-08-06T12:15:27;3.80;;;3.10;;
20004;SDS011;69160;45.498;-73.582;2023-08-06T12:17:54;3.03;;;2.60;;
20004;SDS011;69160;45.498;-73.582;2023-08-06T12:20:20;4.23;;;3.00;;
20004;SDS011;69160;45.498;-73.582;2023-08-06T12:22:46;3.73;;;2.87;;
20004;SDS011;69160;45.498;-73.582;2023-08-06T12:25:12;3.77;;;2.63;;
20004;SDS011;69160;45.498;-73.582;2023-08-06T12:27:39;3.37;;;2.80;;
20004;SDS011;69160;45.498;-73.582;2023-08-06T12:30:07;3.23;;;2.93;;
20004;SDS011;69160;45.498;-73.582;2023-08-06T12:32:35;3.97;;;3.57;;
20004;SDS011;69160;45.498;-73.582;2023-08-06T12:35:01;3.33;;;3.00;;
20004;SDS011;69160;45.498;-73.582;2023-08-06T12:37:28;3.70;;;2.80;;
20004;SDS011;69160;45.498;-73.582;2023-08-06T12:39:54;3.17;;;2.83;;
20004;SDS011;69160;45.498;-73.582;2023-08-06T12:42:20;3.47;;;3.10;;
20004;SDS011;69160;45.498;-73.582;2023-08-06T12:44:48;3.53;;;3.07;;
20004;SDS011;69160;45.498;-73.582;2023-08-06T12:47:15;4.73;;;3.40;;
20004;SDS011;69160;45.498;-73.582;2023-08-06T12:49:41;3.83;;;3.20;;
20004;SDS011;69160;45.498;-73.582;2023-08-06T12:52:07;4.30;;;3.10;;
20004;SDS011;69160;45.498;-73.582;2023-08-06T12:54:34;3.73;;;2.80;;
20004;SDS011;69160;45.498;-73.582;2023-08-06T12:57:04;3.23;;;2.90;;
20004;SDS011;69160;45.498;-73.582;2023-08-06T12:59:30;3.27;;;2.97;;
20004;SDS011;69160;45.498;-73.582;2023-08-06T13:01:58;3.03;;;2.70;;
20004;SDS011;69160;45.498;-73.582;2023-08-06T13:04:25;3.23;;;2.93;;
20004;SDS011;69160;45.498;-73.582;2023-08-06T13:06:53;3.30;;;2.70;;
20004;SDS011;69160;45.498;-73.582;2023-08-06T13:09:20;3.63;;;3.20;;
20004;SDS011;69160;45.498;-73.582;2023-08-06T13:11:46;3.63;;;3.20;;
20004;SDS011;69160;45.498;-73.582;2023-08-06T13:14:15;2.97;;;2.63;;
20004;SDS011;69160;45.498;-73.582;2023-08-06T13:16:42;3.17;;;2.87;;
20004;SDS011;69160;45.498;-73.582;2023-08-06T13:19:10;3.70;;;2.80;;
20004;SDS011;69160;45.498;-73.582;2023-08-06T13:24:08;4.70;;;2.57;;
20004;SDS011;69160;45.498;-73.582;2023-08-06T13:26:34;3.10;;;2.77;;
20004;SDS011;69160;45.498;-73.582;2023-08-06T13:29:01;3.17;;;2.87;;
20004;SDS011;69160;45.498;-73.582;2023-08-06T13:31:28;3.93;;;3.17;;
20004;SDS011;69160;45.498;-73.582;2023-08-06T13:33:54;4.87;;;3.00;;
20004;SDS011;69160;45.498;-73.582;2023-08-06T13:36:23;3.93;;;3.50;;
20004;SDS011;69160;45.498;-73.582;2023-08-06T13:38:52;3.30;;;3.00;;
20004;SDS011;69160;45.498;-73.582;2023-08-06T13:41:18;3.07;;;2.70;;
20004;SDS011;69160;45.498;-73.582;2023-08-06T13:43:45;4.10;;;3.40;;
20004;SDS011;69160;45.498;-73.582;2023-08-06T13:46:11;6.30;;;2.97;;
20004;SDS011;69160;45.498;-73.582;2023-08-06T13:48:47;2.97;;;2.70;;
20004;SDS011;69160;45.498;-73.582;2023-08-06T13:51:17;3.10;;;2.80;;
20004;SDS011;69160;45.498;-73.582;2023-08-06T13:53:43;3.00;;;2.57;;
20004;SDS011;69160;45.498;-73.582;2023-08-06T13:56:10;3.67;;;2.73;;
20004;SDS011;69160;45.498;-73.582;2023-08-06T13:58:36;3.20;;;2.50;;
20004;SDS011;69160;45.498;-73.582;2023-08-06T14:01:03;4.17;;;3.27;;
20004;SDS011;69160;45.498;-73.582;2023-08-06T14:03:30;2.90;;;2.57;;
20004;SDS011;69160;45.498;-73.582;2023-08-06T14:05:56;2.90;;;2.70;;
20004;SDS011;69160;45.498;-73.582;2023-08-06T14:08:22;2.93;;;2.53;;
20004;SDS011;69160;45.498;-73.582;2023-08-06T14:10:49;3.10;;;2.80;;
20004;SDS011;69160;45.498;-73.582;2023-08-06T14:13:16;3.20;;;2.80;;
20004;SDS011;69160;45.498;-73.582;2023-08-06T14:15:43;4.43;;;3.20;;
20004;SDS011;69160;45.498;-73.582;2023-08-06T14:18:12;2.67;;;2.47;;
20004;SDS011;69160;45.498;-73.582;2023-08-06T14:20:39;3.40;;;2.63;;
20004;SDS011;69160;45.498;-73.582;2023-08-06T14:23:06;2.83;;;2.60;;
20004;SDS011;69160;45.498;-73.582;2023-08-06T14:25:32;3.10;;;2.77;;
20004;SDS011;69160;45.498;-73.582;2023-08-06T14:27:58;3.50;;;2.77;;
20004;SDS011;69160;45.498;-73.582;2023-08-06T14:30:24;3.10;;;2.67;;